Isabel Y Andres — EA2246 — position and weather

sailwx.info

Track history (hours):
 
Tides and Currents Weather Stations Pressure Air Temp Water Temp Dewpoint Dewpoint Depression Visibility Wind Speed Wind Dir Waves Ship Positions

Isabel Y Andres

Last reported at 2018-Feb-16 17:09 UTC. Time now 2018-Feb-17 21:35 UTC.
Position N 37°49' W 000°45'.

Length 22 m.

Type: Other ship. MMSI: 224088940.

Date/timePositionNaut miles runAvg speedWind from/ knotsBaromVisibWave heightAir tempDewpointWater temp
2018-Feb-16 17:09N 37°49' W 000°45'0 0.1
2018-Feb-16 17:00N 37°49' W 000°45'0 0.0
2018-Feb-16 16:30N 37°49' W 000°45'0 0.0
2018-Feb-16 16:00N 37°49' W 000°45'2 4.4
2018-Feb-16 15:30N 37°48' W 000°43'510.3
2018-Feb-16 15:00N 37°44' W 000°39'510.6
2018-Feb-16 14:30N 37°40' W 000°34'810.1
2018-Feb-16 13:45N 37°35' W 000°28'0 1.1
2018-Feb-16 13:25N 37°34' W 000°28'10 2.6
2018-Feb-16 09:25N 37°37' W 000°15'1 2.6
2018-Feb-16 08:58N 37°36' W 000°17'3 2.9
2018-Feb-16 07:59N 37°36' W 000°20'2 2.9
2018-Feb-16 07:23N 37°36' W 000°22'1 2.8
2018-Feb-16 06:58N 37°35' W 000°24'2 2.7
2018-Feb-16 06:19N 37°35' W 000°26'6 6.7
2018-Feb-16 05:28N 37°38' W 000°32'5 9.7
2018-Feb-16 05:00N 37°41' W 000°36'5 9.7
2018-Feb-16 04:30N 37°45' W 000°40'510.2
2018-Feb-16 04:00N 37°49' W 000°44'1 0.1
2018-Feb-15 16:11N 37°49' W 000°45'0 0.2
2018-Feb-15 16:00N 37°49' W 000°45'4 8.8
2018-Feb-15 15:30N 37°46' W 000°41'510.2
2018-Feb-15 15:00N 37°43' W 000°36'510.6
2018-Feb-15 14:29N 37°39' W 000°32'510.1
2018-Feb-15 13:58N 37°35' W 000°27'3 0.4
2018-Feb-15 05:38N 37°37' W 000°30'110.0
2018-Feb-15 05:30N 37°38' W 000°31'5 9.8
2018-Feb-15 05:00N 37°41' W 000°36'510.3
2018-Feb-15 04:30N 37°45' W 000°40'510.6
2018-Feb-15 04:00N 37°49' W 000°45'1 0.1
2018-Feb-14 16:01N 37°49' W 000°45'0 0.1
2018-Feb-14 16:00N 37°49' W 000°45'3 6.2
2018-Feb-14 15:31N 37°47' W 000°42'510.2
2018-Feb-14 14:59N 37°43' W 000°38'12 9.9
2018-Feb-14 13:48N 37°35' W 000°27'1 0.1
2018-Feb-14 06:23N 37°35' W 000°26'1 3.7
2018-Feb-14 06:01N 37°35' W 000°27'4 8.6
2018-Feb-14 05:31N 37°38' W 000°31'5 9.7
2018-Feb-14 05:00N 37°41' W 000°36'5 9.5
2018-Feb-14 04:31N 37°45' W 000°40'510.0
2018-Feb-14 04:01N 37°48' W 000°44'1 0.1
2018-Feb-13 16:02N 37°49' W 000°45'0 0.3
2018-Feb-13 16:01N 37°49' W 000°45'3 5.9
2018-Feb-13 15:31N 37°47' W 000°43'510.0
2018-Feb-13 15:01N 37°44' W 000°38'510.3
2018-Feb-13 14:30N 37°40' W 000°33'710.0
2018-Feb-13 13:48N 37°35' W 000°27'9 2.2
2018-Feb-13 09:33N 37°37' W 000°15'0 2.9
2018-Feb-13 09:23N 37°37' W 000°16'5 2.8
2018-Feb-13 07:38N 37°36' W 000°22'1 2.7
2018-Feb-13 07:06N 37°35' W 000°24'0 2.9
2018-Feb-13 07:00N 37°35' W 000°24'4 3.4
2018-Feb-13 05:55N 37°35' W 000°28'4 9.6
2018-Feb-13 05:31N 37°38' W 000°32'5 9.6
2018-Feb-13 05:01N 37°41' W 000°36'510.1
2018-Feb-13 04:31N 37°45' W 000°40'510.4
2018-Feb-13 04:01N 37°49' W 000°45'1 0.0
2018-Feb-12 16:05N 37°49' W 000°45'0 0.1
2018-Feb-12 16:00N 37°49' W 000°45'4 7.0
2018-Feb-12 15:30N 37°47' W 000°42'510.0
2018-Feb-12 15:00N 37°43' W 000°38'12 9.1
2018-Feb-12 13:42N 37°35' W 000°27'4 0.7
2018-Feb-12 07:33N 37°36' W 000°22'0 2.6
2018-Feb-12 07:30N 37°36' W 000°22'1 2.8
2018-Feb-12 06:59N 37°35' W 000°24'3 3.2
2018-Feb-12 06:10N 37°35' W 000°27'2 6.0
2018-Feb-12 05:52N 37°35' W 000°29'3 9.7
2018-Feb-12 05:30N 37°38' W 000°32'5 9.7
2018-Feb-12 05:00N 37°42' W 000°36'5 9.7
2018-Feb-12 04:30N 37°45' W 000°40'510.1
2018-Feb-12 04:00N 37°49' W 000°45'  
2018-Feb-09 16:00N 37°49' W 000°45'4 8.8
2018-Feb-09 15:30N 37°46' W 000°41'11 1.1
2018-Feb-09 05:30N 37°38' W 000°32'5 9.8
2018-Feb-09 05:00N 37°41' W 000°36'5 9.7
2018-Feb-09 04:30N 37°45' W 000°40'510.2
2018-Feb-09 04:00N 37°49' W 000°44'11 0.8
2018-Feb-08 15:00N 37°41' W 000°35'4 0.4
2018-Feb-08 05:30N 37°38' W 000°32'5 9.7
2018-Feb-08 05:00N 37°41' W 000°36'5 9.9
2018-Feb-08 04:30N 37°45' W 000°40'510.2
2018-Feb-08 04:00N 37°49' W 000°44'16 0.7
2018-Feb-07 05:38N 37°37' W 000°30'1 9.5
2018-Feb-07 05:30N 37°38' W 000°31'5 9.5
2018-Feb-07 05:00N 37°41' W 000°36'5 9.6
2018-Feb-07 04:30N 37°45' W 000°40'510.2
2018-Feb-07 04:00N 37°48' W 000°44'  
Track history (hours):
 
Tides and Currents Weather Stations Pressure Air Temp Water Temp Dewpoint Dewpoint Depression Visibility Wind Speed Wind Dir Waves Ship Positions

Isabel Y Andres

Last reported at 2018-Feb-16 17:09 UTC. Time now 2018-Feb-17 21:35 UTC.
Position N 37°49' W 000°45'.

Length 22 m.

Type: Other ship. MMSI: 224088940.

Date/timePositionNaut miles runAvg speedWind from/ knotsBaromVisibWave heightAir tempDewpointWater temp
2018-Feb-16 17:09N 37°49' W 000°45'0 0.1
2018-Feb-16 17:00N 37°49' W 000°45'0 0.0
2018-Feb-16 16:30N 37°49' W 000°45'0 0.0
2018-Feb-16 16:00N 37°49' W 000°45'2 4.4
2018-Feb-16 15:30N 37°48' W 000°43'510.3
2018-Feb-16 15:00N 37°44' W 000°39'510.6
2018-Feb-16 14:30N 37°40' W 000°34'810.1
2018-Feb-16 13:45N 37°35' W 000°28'0 1.1
2018-Feb-16 13:25N 37°34' W 000°28'10 2.6
2018-Feb-16 09:25N 37°37' W 000°15'1 2.6
2018-Feb-16 08:58N 37°36' W 000°17'3 2.9
2018-Feb-16 07:59N 37°36' W 000°20'2 2.9
2018-Feb-16 07:23N 37°36' W 000°22'1 2.8
2018-Feb-16 06:58N 37°35' W 000°24'2 2.7
2018-Feb-16 06:19N 37°35' W 000°26'6 6.7
2018-Feb-16 05:28N 37°38' W 000°32'5 9.7
2018-Feb-16 05:00N 37°41' W 000°36'5 9.7
2018-Feb-16 04:30N 37°45' W 000°40'510.2
2018-Feb-16 04:00N 37°49' W 000°44'1 0.1
2018-Feb-15 16:11N 37°49' W 000°45'0 0.2
2018-Feb-15 16:00N 37°49' W 000°45'4 8.8
2018-Feb-15 15:30N 37°46' W 000°41'510.2
2018-Feb-15 15:00N 37°43' W 000°36'510.6
2018-Feb-15 14:29N 37°39' W 000°32'510.1
2018-Feb-15 13:58N 37°35' W 000°27'3 0.4
2018-Feb-15 05:38N 37°37' W 000°30'110.0
2018-Feb-15 05:30N 37°38' W 000°31'5 9.8
2018-Feb-15 05:00N 37°41' W 000°36'510.3
2018-Feb-15 04:30N 37°45' W 000°40'510.6
2018-Feb-15 04:00N 37°49' W 000°45'1 0.1
2018-Feb-14 16:01N 37°49' W 000°45'0 0.1
2018-Feb-14 16:00N 37°49' W 000°45'3 6.2
2018-Feb-14 15:31N 37°47' W 000°42'510.2
2018-Feb-14 14:59N 37°43' W 000°38'12 9.9
2018-Feb-14 13:48N 37°35' W 000°27'1 0.1
2018-Feb-14 06:23N 37°35' W 000°26'1 3.7
2018-Feb-14 06:01N 37°35' W 000°27'4 8.6
2018-Feb-14 05:31N 37°38' W 000°31'5 9.7
2018-Feb-14 05:00N 37°41' W 000°36'5 9.5
2018-Feb-14 04:31N 37°45' W 000°40'510.0
2018-Feb-14 04:01N 37°48' W 000°44'1 0.1
2018-Feb-13 16:02N 37°49' W 000°45'0 0.3
2018-Feb-13 16:01N 37°49' W 000°45'3 5.9
2018-Feb-13 15:31N 37°47' W 000°43'510.0
2018-Feb-13 15:01N 37°44' W 000°38'510.3
2018-Feb-13 14:30N 37°40' W 000°33'710.0
2018-Feb-13 13:48N 37°35' W 000°27'9 2.2
2018-Feb-13 09:33N 37°37' W 000°15'0 2.9
2018-Feb-13 09:23N 37°37' W 000°16'5 2.8
2018-Feb-13 07:38N 37°36' W 000°22'1 2.7
2018-Feb-13 07:06N 37°35' W 000°24'0 2.9
2018-Feb-13 07:00N 37°35' W 000°24'4 3.4
2018-Feb-13 05:55N 37°35' W 000°28'4 9.6
2018-Feb-13 05:31N 37°38' W 000°32'5 9.6
2018-Feb-13 05:01N 37°41' W 000°36'510.1
2018-Feb-13 04:31N 37°45' W 000°40'510.4
2018-Feb-13 04:01N 37°49' W 000°45'1 0.0
2018-Feb-12 16:05N 37°49' W 000°45'0 0.1
2018-Feb-12 16:00N 37°49' W 000°45'4 7.0
2018-Feb-12 15:30N 37°47' W 000°42'510.0
2018-Feb-12 15:00N 37°43' W 000°38'12 9.1
2018-Feb-12 13:42N 37°35' W 000°27'4 0.7
2018-Feb-12 07:33N 37°36' W 000°22'0 2.6
2018-Feb-12 07:30N 37°36' W 000°22'1 2.8
2018-Feb-12 06:59N 37°35' W 000°24'3 3.2
2018-Feb-12 06:10N 37°35' W 000°27'2 6.0
2018-Feb-12 05:52N 37°35' W 000°29'3 9.7
2018-Feb-12 05:30N 37°38' W 000°32'5 9.7
2018-Feb-12 05:00N 37°42' W 000°36'5 9.7
2018-Feb-12 04:30N 37°45' W 000°40'510.1
2018-Feb-12 04:00N 37°49' W 000°45'  
2018-Feb-09 16:00N 37°49' W 000°45'4 8.8
2018-Feb-09 15:30N 37°46' W 000°41'11 1.1
2018-Feb-09 05:30N 37°38' W 000°32'5 9.8
2018-Feb-09 05:00N 37°41' W 000°36'5 9.7
2018-Feb-09 04:30N 37°45' W 000°40'510.2
2018-Feb-09 04:00N 37°49' W 000°44'11 0.8
2018-Feb-08 15:00N 37°41' W 000°35'4 0.4
2018-Feb-08 05:30N 37°38' W 000°32'5 9.7
2018-Feb-08 05:00N 37°41' W 000°36'5 9.9
2018-Feb-08 04:30N 37°45' W 000°40'510.2
2018-Feb-08 04:00N 37°49' W 000°44'16 0.7
2018-Feb-07 05:38N 37°37' W 000°30'1 9.5
2018-Feb-07 05:30N 37°38' W 000°31'5 9.5
2018-Feb-07 05:00N 37°41' W 000°36'5 9.6
2018-Feb-07 04:30N 37°45' W 000°40'510.2
2018-Feb-07 04:00N 37°48' W 000°44'  

Dump ship's entire track history